• Join FlightAware (Why Join?)
  • Login
  • US Flag 
02:31AM EDT


 

Airport Tracker/Info


-or-


 

Live Flight TrackerFlight Track Log ✈ N6502A ✈ 06-Jul-2013 ✈ KLNS - KMQI

Flight Track Log - Related Links

Times and Time Zones

All times are in EDT time to prevent confusion due to time zone crossing. See the N6502A flight status page for this flight to view local times or setup timezone preferences in your user account.

Time Position Orientation Groundspeed Altitude Reporting Facility
EDT Latitude Longitude Course Direction KTS MPH feet Rate Location/Type
09:03AM 40.0000 -76.3833 213° Southwest 146 168 3,800  Level Potomac TRACON
09:04AM 39.9667 -76.4000 201° Southwest 145 167 4,500 660 Climbing Potomac TRACON
09:05AM 39.8872 -76.4795 218° Southwest  Level FlightAware Approximate
09:05AM 39.9167 -76.4167 194° South 144 166 5,200  Level Potomac TRACON
09:06AM 39.8499 -76.5144 213° Southwest  Level FlightAware Approximate
09:06AM 39.8833 -76.4333 201° Southwest 139 160 6,000  Level Potomac TRACON
09:07AM 39.8116 -76.5473 213° Southwest  Level FlightAware Approximate
09:07AM 39.8500 -76.4167 159° South 141 162 6,600  Level Potomac TRACON
09:08AM 39.7732 -76.5801 213° Southwest  Level FlightAware Approximate
09:08AM 39.8167 -76.4167 180° South 138 159 7,200  Level Potomac TRACON
09:09AM 39.7667 -76.4000 166° South 141 162 7,800 300 Climbing Potomac TRACON
09:10AM 39.7333 -76.3833 159° South 157 181 7,900  Climbing Potomac TRACON
09:11AM 39.6833 -76.3833 180° South 165 190 7,900  Level Potomac TRACON
09:12AM 39.6500 -76.3667 159° South 168 193 7,900  Level Potomac TRACON
09:13AM 39.6000 -76.3500 166° South 167 192 7,900  Level Potomac TRACON
09:14AM 39.5694 -76.3508 181° South 172 198 7,900  Level Washington Center
09:15AM 39.5197 -76.3394 170° South 172 198 7,900  Level Washington Center
09:16AM 39.4758 -76.3281 169° South 172 198 7,900  Level Washington Center
09:17AM 39.4322 -76.3169 169° South 172 198 7,900  Level Washington Center
09:18AM 39.3864 -76.3086 172° South 172 198 7,900  Level Washington Center
09:19AM 39.3303 -76.2972 171° South 172 198 7,900  Level Washington Center
09:20AM 39.2867 -76.2833 166° South 172 198 7,900  Level Washington Center
09:21AM 39.2408 -76.2775 174° South 172 198 7,900  Level Washington Center
09:22AM 39.1928 -76.2664 170° South 172 198 7,900  Level Washington Center
09:23AM 39.1469 -76.2686 182° South 172 198 7,900  Level Washington Center
09:24AM 39.1011 -76.2736 185° South 172 198 7,900  Level Washington Center
09:25AM 39.0572 -76.2758 182° South 167 192 7,900  Level Washington Center
09:26AM 39.0094 -76.2756 180° South 168 193 7,900  Level Washington Center
09:27AM 38.9614 -76.2803 184° South 168 193 7,900  Level Washington Center
09:28AM 38.9156 -76.2825 182° South 168 193 7,900  Level Washington Center
09:29AM 38.8675 -76.2875 185° South 168 193 7,900  Level Washington Center
09:30AM 38.8258 -76.2925 185° South 174 200 8,000  Climbing Washington Center
09:31AM 38.7819 -76.2947 182° South 180 207 8,000  Level Washington Center
09:32AM 38.7342 -76.2994 184° South 180 207 8,000  Level Washington Center
09:33AM 38.6861 -76.2992 180° South 180 207 8,000  Level Washington Center
09:34AM 38.6422 -76.3039 185° South 180 207 8,000  Level Washington Center
09:35AM 38.5986 -76.3008 177° South 175 201 8,000  Level Washington Center
09:36AM 38.5528 -76.2900 170° South 175 201 8,000  Level Washington Center
09:37AM 38.5028 -76.2789 170° South 175 201 8,000  Level Washington Center
09:38AM 38.4569 -76.2678 169° South 175 201 8,000  Level Washington Center
09:39AM 38.4111 -76.2567 169° South 180 207 8,000  Level Washington Center
09:40AM 38.3653 -76.2458 170° South 180 207 8,000  Level Washington Center
09:41AM 38.3217 -76.2347 169° South 180 207 8,000  Level Washington Center
09:42AM 38.2653 -76.2183 167° South 180 207 8,000  Level Washington Center
09:43AM 38.2217 -76.2075 169° South 180 207 8,000  Level Washington Center
09:44AM 38.1736 -76.1939 167° South 180 207 8,000  Level Washington Center
09:45AM 38.1278 -76.1883 175° South 180 207 8,000  Level Washington Center
09:46AM 38.0800 -76.1775 170° South 180 207 8,000  Level Washington Center
09:47AM 38.0319 -76.1664 170° South 180 207 8,000  Level Washington Center
09:48AM 37.9861 -76.1556 169° South 180 207 8,000  Level Washington Center
09:49AM 37.9383 -76.1447 170° South 180 207 8,000  Level Washington Center
09:50AM 37.8925 -76.1364 172° South 180 207 8,000  Level Washington Center
09:51AM 37.8444 -76.1231 168° South 180 207 8,000  Level Washington Center
09:52AM 37.7986 -76.1147 172° South 180 207 8,000  Level Washington Center
09:53AM 37.7569 -76.1067 171° South 180 207 8,000  Level Washington Center
09:54AM 37.7111 -76.0983 172° South 180 207 8,000  Level Washington Center
09:55AM 37.6633 -76.0850 168° South 180 207 8,000  Level Washington Center
09:56AM 37.6175 -76.0742 169° South 180 207 8,000  Level Washington Center
09:57AM 37.5717 -76.0661 172° South 180 207 8,000  Level Washington Center
09:58AM 37.5236 -76.0553 170° South 180 207 8,000  Level Washington Center
09:59AM 37.4486 -76.0392 170° South 169 194 8,000  Level Washington Center
10:00AM 37.4111 -76.0311 170° South 171 197 8,000 -60 Level Washington Center
10:01AM 37.3672 -76.0153 164° South 169 194 7,900 -60 Descending Washington Center
10:02AM 37.3236 -76.0072 172° South 168 193 7,900  Level Washington Center
10:03AM 37.2797 -75.9989 171° South 168 193 7,900  Level Washington Center
10:04AM 37.2339 -75.9883 170° South 169 194 7,900  Level Washington Center
10:05AM 37.1903 -75.9778 169° South 169 194 7,900  Level Washington Center
10:06AM 37.1381 -75.9644 168° South 168 193 7,900  Level Washington Center
10:07AM 37.0922 -75.9539 170° South 170 196 7,900  Level Washington Center
10:08AM 37.0483 -75.9458 172° South 169 194 7,900  Level Washington Center
10:09AM 37.0025 -75.9353 170° South 167 192 7,900  Level Washington Center
10:10AM 36.9547 -75.9247 170° South 168 193 7,900 -240 Level Washington Center
10:11AM 36.9044 -75.9114 168° South 177 204 7,500 -360 Descending Washington Center
10:12AM 36.8628 -75.9033 171° South 188 216 7,200 -420 Descending Washington Center
10:13AM 36.8086 -75.8903 169° South 188 216 6,700 -540 Descending Washington Center
10:14AM 36.7564 -75.8797 171° South 188 216 6,200 -540 Descending Washington Center
10:15AM 36.7044 -75.8692 171° South 188 216 5,700 -540 Descending Washington Center
10:16AM 36.6544 -75.8561 168° South 188 216 5,200 -600 Descending Washington Center
10:17AM 36.6000 -75.8506 175° South 187 215 4,600 -540 Descending Washington Center
10:18AM 36.5481 -75.8350 166° South 188 216 4,200 -300 Descending Washington Center
10:19AM 36.5022 -75.8244 170° South 188 216 4,000 -360 Descending Washington Center
10:19AM 36.5022 -75.8244 170° South 182 209 3,900  Descending Washington Center
10:20AM 36.4583 -75.8089 164° South 178 205 4,000  Climbing Washington Center
10:21AM 36.4144 -75.7753 148° Southeast 184 212 4,000  Level Washington Center
10:22AM 36.3728 -75.7467 151° Southeast 179 206 4,000  Level Washington Center
10:23AM 36.3311 -75.7183 151° Southeast 179 206 4,000  Level Washington Center
10:24AM 36.2894 -75.6900 151° Southeast 179 206 4,000 -300 Level Washington Center
10:25AM 36.2414 -75.6589 152° Southeast 179 206 3,500 -480 Descending Washington Center
10:26AM 36.1978 -75.6256 148° Southeast 179 206 3,100 -300 Descending Washington Center
10:27AM 36.1519 -75.5972 153° Southeast 179 206 3,000 -300 Descending Washington Center
10:28AM 36.1100 -75.5664 149° Southeast 179 206 2,600 -360 Descending Washington Center
10:29AM 36.0642 -75.5561 170° South 179 206 2,300 -360 Descending Washington Center
10:30AM 36.0286 -75.5919 219° Southwest 157 181 1,900 -360 Descending Washington Center
10:31AM 35.9953 -75.6228 217° Southwest 152 175 1,700 -180 Descending Washington Center
10:32AM 35.9639 -75.6433 208° Southwest 152 175 1,600 -120 Descending Washington Center
10:34AM 35.9167 -75.6833 219° Southwest  Level FlightAware Approximate